createdAt,value
2023-04-02T00:01:38.729Z,14.36
2023-04-02T00:07:28.630Z,14.36
2023-04-02T00:13:22.258Z,14.38
2023-04-02T00:19:08.577Z,14.43
2023-04-02T00:24:54.718Z,14.41
2023-04-02T00:30:43.946Z,14.42
2023-04-02T00:36:30.127Z,14.37
2023-04-02T00:42:15.126Z,14.35
2023-04-02T00:48:00.210Z,14.35
2023-04-02T00:53:45.207Z,14.36
2023-04-02T00:59:31.292Z,14.36
2023-04-02T01:05:23.999Z,14.34
2023-04-02T01:11:14.531Z,14.35
2023-04-02T01:17:03.666Z,14.35
2023-04-02T01:22:51.808Z,14.33
2023-04-02T01:28:35.995Z,14.34
2023-04-02T01:34:21.941Z,14.47
2023-04-02T01:40:18.552Z,14.36
2023-04-02T01:46:05.069Z,14.32
2023-04-02T01:51:50.850Z,14.3
2023-04-02T01:57:35.002Z,14.28
2023-04-02T02:03:19.538Z,14.23
2023-04-02T02:09:04.625Z,14.21
2023-04-02T02:14:51.891Z,14.17
2023-04-02T02:20:35.909Z,14.21
2023-04-02T02:26:20.538Z,14.16
2023-04-02T02:32:06.248Z,14.13
2023-04-02T02:37:52.613Z,14.09
2023-04-02T02:43:39.900Z,14.05
2023-04-02T02:49:26.011Z,14.05
2023-04-02T02:55:12.218Z,14.03
2023-04-02T03:00:56.358Z,14
2023-04-02T03:06:40.826Z,13.97
2023-04-02T03:12:34.881Z,13.97
2023-04-02T03:18:24.007Z,13.97
2023-04-02T03:24:12.425Z,13.94
2023-04-02T03:30:01.013Z,13.92
2023-04-02T03:35:47.562Z,13.92
2023-04-02T03:41:34.807Z,13.89
2023-04-02T03:47:20.766Z,13.87
2023-04-02T03:53:05.269Z,13.83
2023-04-02T03:58:52.255Z,13.83
2023-04-02T04:04:40.237Z,13.84
2023-04-02T04:10:26.033Z,13.83
2023-04-02T04:16:12.139Z,13.81
2023-04-02T04:22:01.142Z,13.81
2023-04-02T04:27:50.741Z,13.82
2023-04-02T04:33:38.881Z,13.79
2023-04-02T04:39:25.301Z,13.76
2023-04-02T04:45:13.670Z,13.75
2023-04-02T04:50:59.804Z,13.73
2023-04-02T04:56:45.661Z,13.72
2023-04-02T05:02:33.954Z,13.68
2023-04-02T05:08:20.719Z,13.65
2023-04-02T05:14:06.773Z,13.63
2023-04-02T05:19:53.192Z,13.7
2023-04-02T05:25:38.125Z,13.63
2023-04-02T05:31:24.463Z,13.62
2023-04-02T05:37:13.595Z,13.62
2023-04-02T05:42:58.997Z,13.6
2023-04-02T05:48:44.255Z,13.59
2023-04-02T05:54:30.770Z,13.57
2023-04-02T06:00:18.982Z,13.57
2023-04-02T06:06:06.571Z,13.54
2023-04-02T06:11:52.795Z,13.54
2023-04-02T06:17:41.765Z,13.56
2023-04-02T06:23:28.785Z,13.58
2023-04-02T06:29:17.552Z,13.55
2023-04-02T06:35:01.823Z,13.54
2023-04-02T06:40:48.654Z,13.54
2023-04-02T06:46:35.690Z,13.56
2023-04-02T06:52:23.201Z,13.58
2023-04-02T06:58:08.774Z,13.58
2023-04-02T07:03:52.975Z,13.58
2023-04-02T07:09:36.960Z,13.59
2023-04-02T07:15:21.083Z,13.6
2023-04-02T07:21:05.990Z,13.64
2023-04-02T07:26:49.971Z,13.67
2023-04-02T07:32:34.072Z,13.68
2023-04-02T07:38:18.289Z,13.67
2023-04-02T07:44:03.970Z,13.68
2023-04-02T07:49:48.140Z,13.66
2023-04-02T07:55:32.102Z,13.76
2023-04-02T08:01:19.217Z,13.78
2023-04-02T08:07:03.230Z,13.8
2023-04-02T08:12:47.459Z,13.81
2023-04-02T08:18:31.558Z,13.82
2023-04-02T08:24:15.555Z,13.83
2023-04-02T08:29:59.859Z,13.81
2023-04-02T08:35:43.944Z,13.8
2023-04-02T08:41:28.239Z,13.77
2023-04-02T08:47:14.224Z,13.77
2023-04-02T08:52:58.614Z,13.79
2023-04-02T08:58:44.526Z,13.83
2023-04-02T09:04:28.701Z,13.9
2023-04-02T09:10:16.500Z,14.01
2023-04-02T09:16:03.668Z,14.09
2023-04-02T09:21:52.488Z,14.19
2023-04-02T09:27:36.636Z,14.22
2023-04-02T09:33:25.731Z,14.17
2023-04-02T09:39:14.896Z,14.18
2023-04-02T09:45:05.674Z,14.35
2023-04-02T09:50:49.934Z,14.36
2023-04-02T09:56:35.478Z,14.4
2023-04-02T10:02:29.420Z,14.51
2023-04-02T10:08:18.681Z,14.54
2023-04-02T10:14:04.706Z,14.53
2023-04-02T10:19:50.980Z,14.55
2023-04-02T10:25:40.031Z,14.56
2023-04-02T10:31:26.090Z,14.63
2023-04-02T10:37:18.566Z,14.67
2023-04-02T10:43:08.243Z,14.75
2023-04-02T10:48:57.205Z,14.71
2023-04-02T10:54:44.873Z,14.75
2023-04-02T11:00:30.347Z,14.75
2023-04-02T11:06:19.055Z,14.74
2023-04-02T11:12:05.731Z,14.67
2023-04-02T11:17:49.987Z,14.78
2023-04-02T11:23:35.269Z,14.77
2023-04-02T11:29:21.210Z,14.91
2023-04-02T11:35:19.306Z,15.07
2023-04-02T11:41:03.391Z,15.1
2023-04-02T11:46:47.865Z,15.1
2023-04-02T11:52:34.087Z,15.19
2023-04-02T11:58:38.085Z,15.27
2023-04-02T12:04:36.908Z,15.36
2023-04-02T12:10:24.206Z,15.36
2023-04-02T12:16:09.351Z,15.34
2023-04-02T12:21:53.329Z,15.42
2023-04-02T12:27:37.353Z,15.47
2023-04-02T12:33:28.970Z,15.47
2023-04-02T12:39:17.008Z,15.5
2023-04-02T12:45:01.442Z,15.5
2023-04-02T12:50:45.682Z,15.52
2023-04-02T12:56:29.875Z,15.44
2023-04-02T13:02:20.665Z,15.41
2023-04-02T13:08:15.911Z,15.41
2023-04-02T13:14:01.392Z,15.5
2023-04-02T13:19:45.532Z,15.51
2023-04-02T13:25:32.003Z,15.48
2023-04-02T13:31:17.865Z,15.5
2023-04-02T13:37:02.320Z,15.53
2023-04-02T13:42:56.078Z,15.59
2023-04-02T13:48:40.556Z,15.63
2023-04-02T13:54:28.797Z,15.66
2023-04-02T14:00:13.729Z,15.68
2023-04-02T14:06:02.549Z,15.71
2023-04-02T14:11:51.840Z,15.69
2023-04-02T14:17:41.904Z,15.82
2023-04-02T14:23:34.805Z,15.83
2023-04-02T14:29:23.785Z,15.85
2023-04-02T14:35:15.720Z,15.79
2023-04-02T14:41:04.415Z,15.72
2023-04-02T14:46:49.915Z,15.73
2023-04-02T14:52:35.066Z,15.61
2023-04-02T14:58:23.185Z,15.53
2023-04-02T15:04:10.921Z,15.49
2023-04-02T15:10:00.146Z,15.5
2023-04-02T15:15:46.193Z,15.43
2023-04-02T15:21:43.657Z,15.41
2023-04-02T15:27:49.399Z,15.35
2023-04-02T15:33:40.339Z,15.33
2023-04-02T15:39:41.437Z,15.28
2023-04-02T15:45:29.214Z,15.35
2023-04-02T15:51:20.174Z,15.32
2023-04-02T15:57:11.156Z,15.32
2023-04-02T16:03:08.763Z,15.27
2023-04-02T16:09:02.012Z,15.18
2023-04-02T16:14:47.211Z,15.14
2023-04-02T16:20:34.186Z,15.07
2023-04-02T16:26:29.489Z,15
2023-04-02T16:32:18.855Z,14.95
2023-04-02T16:38:08.646Z,14.95
2023-04-02T16:43:58.375Z,14.91
2023-04-02T16:49:47.463Z,14.73
2023-04-02T16:55:36.631Z,14.67
2023-04-02T17:01:25.322Z,14.66
2023-04-02T17:07:10.722Z,14.61
2023-04-02T17:12:58.972Z,14.53
2023-04-02T17:18:46.174Z,14.47
2023-04-02T17:24:31.908Z,14.47
2023-04-02T17:30:18.532Z,14.36
2023-04-02T17:36:09.474Z,14.34
2023-04-02T17:41:58.511Z,14.27
2023-04-02T17:47:47.464Z,14.22
2023-04-02T17:53:43.251Z,14.16
2023-04-02T17:59:34.675Z,14.09
2023-04-02T18:05:23.819Z,14.04
2023-04-02T18:11:11.660Z,13.93
2023-04-02T18:17:00.711Z,13.88
2023-04-02T18:22:49.466Z,13.82
2023-04-02T18:28:47.587Z,13.77
2023-04-02T18:34:43.731Z,13.76
2023-04-02T18:40:34.517Z,13.73
2023-04-02T18:46:22.230Z,13.68
2023-04-02T18:52:11.183Z,13.61
2023-04-02T18:57:57.224Z,13.59
2023-04-02T19:03:44.048Z,13.55
2023-04-02T19:09:31.631Z,13.51
2023-04-02T19:15:19.142Z,13.48
2023-04-02T19:21:08.847Z,13.47
2023-04-02T19:26:58.674Z,13.42
2023-04-02T19:32:47.973Z,13.38
2023-04-02T19:38:41.726Z,13.35
2023-04-02T19:44:26.963Z,13.3
2023-04-02T19:50:11.497Z,13.25
2023-04-02T19:55:55.618Z,13.21
2023-04-02T20:01:39.596Z,13.19
2023-04-02T20:07:23.574Z,13.14
2023-04-02T20:13:07.916Z,13.06
2023-04-02T20:18:52.560Z,12.99
2023-04-02T20:24:36.726Z,12.92
2023-04-02T20:30:20.897Z,12.87
2023-04-02T20:36:06.871Z,12.81
2023-04-02T20:41:51.022Z,12.75
2023-04-02T20:47:35.272Z,12.74
2023-04-02T20:53:20.504Z,12.69
2023-04-02T20:59:04.874Z,12.67
2023-04-02T21:04:49.033Z,12.64
2023-04-02T21:10:33.302Z,12.61
2023-04-02T21:16:18.873Z,12.58
2023-04-02T21:22:03.090Z,12.61
2023-04-02T21:27:47.190Z,12.59
2023-04-02T21:33:31.777Z,12.55
2023-04-02T21:39:16.519Z,12.56
2023-04-02T21:45:00.481Z,12.57
2023-04-02T21:50:44.587Z,12.6
2023-04-02T21:56:29.367Z,12.57
2023-04-02T22:02:13.413Z,12.53
2023-04-02T22:07:57.470Z,12.52
2023-04-02T22:13:41.858Z,12.54
2023-04-02T22:19:26.050Z,12.55
2023-04-02T22:25:10.425Z,12.46
2023-04-02T22:30:54.901Z,12.45
2023-04-02T22:36:39.114Z,12.37
2023-04-02T22:42:23.104Z,12.39
2023-04-02T22:48:07.171Z,12.33
2023-04-02T22:53:52.793Z,12.28
2023-04-02T22:59:36.743Z,12.21
2023-04-02T23:05:21.926Z,12.14
2023-04-02T23:11:06.947Z,12.06
2023-04-02T23:16:50.849Z,11.98
2023-04-02T23:22:34.794Z,11.91
2023-04-02T23:28:18.796Z,11.86
2023-04-02T23:34:03.265Z,11.84
2023-04-02T23:39:47.370Z,11.78
2023-04-02T23:45:31.581Z,11.72
2023-04-02T23:51:15.862Z,11.7
2023-04-02T23:56:59.877Z,11.67
